sensor_id;sensor_type;location;lat;lon;timestamp;P1;durP1;ratioP1;P2;durP2;ratioP2
22881;SDS011;11608;50.894;5.296;2023-03-01T00:00:23;28.37;;;25.97;;
22881;SDS011;11608;50.894;5.296;2023-03-01T00:02:49;29.20;;;26.60;;
22881;SDS011;11608;50.894;5.296;2023-03-01T00:05:15;28.93;;;26.23;;
22881;SDS011;11608;50.894;5.296;2023-03-01T00:07:41;28.40;;;26.10;;
22881;SDS011;11608;50.894;5.296;2023-03-01T00:10:07;28.83;;;26.43;;
22881;SDS011;11608;50.894;5.296;2023-03-01T00:12:34;27.57;;;25.27;;
22881;SDS011;11608;50.894;5.296;2023-03-01T00:15:01;29.77;;;27.27;;
22881;SDS011;11608;50.894;5.296;2023-03-01T00:17:29;29.20;;;26.63;;
22881;SDS011;11608;50.894;5.296;2023-03-01T00:19:55;27.93;;;25.73;;
22881;SDS011;11608;50.894;5.296;2023-03-01T00:22:21;28.37;;;25.90;;
22881;SDS011;11608;50.894;5.296;2023-03-01T00:24:48;28.37;;;26.00;;
22881;SDS011;11608;50.894;5.296;2023-03-01T00:27:14;28.40;;;26.20;;
22881;SDS011;11608;50.894;5.296;2023-03-01T00:29:40;28.73;;;26.30;;
22881;SDS011;11608;50.894;5.296;2023-03-01T00:32:06;28.90;;;26.63;;
22881;SDS011;11608;50.894;5.296;2023-03-01T00:34:32;28.47;;;26.00;;
22881;SDS011;11608;50.894;5.296;2023-03-01T00:36:58;28.70;;;26.43;;
22881;SDS011;11608;50.894;5.296;2023-03-01T00:39:30;29.57;;;26.87;;
22881;SDS011;11608;50.894;5.296;2023-03-01T00:41:56;27.73;;;25.43;;
22881;SDS011;11608;50.894;5.296;2023-03-01T00:44:22;28.97;;;26.70;;
22881;SDS011;11608;50.894;5.296;2023-03-01T00:46:48;28.57;;;26.17;;
22881;SDS011;11608;50.894;5.296;2023-03-01T00:49:14;28.47;;;26.37;;
22881;SDS011;11608;50.894;5.296;2023-03-01T00:51:40;29.07;;;26.57;;
22881;SDS011;11608;50.894;5.296;2023-03-01T00:54:09;28.07;;;25.63;;
22881;SDS011;11608;50.894;5.296;2023-03-01T00:56:35;27.83;;;25.57;;
22881;SDS011;11608;50.894;5.296;2023-03-01T00:59:01;27.77;;;25.53;;
22881;SDS011;11608;50.894;5.296;2023-03-01T01:01:28;28.43;;;25.83;;
22881;SDS011;11608;50.894;5.296;2023-03-01T01:03:56;26.23;;;24.07;;
22881;SDS011;11608;50.894;5.296;2023-03-01T01:06:27;27.27;;;24.87;;
22881;SDS011;11608;50.894;5.296;2023-03-01T01:08:53;27.77;;;25.37;;
22881;SDS011;11608;50.894;5.296;2023-03-01T01:11:20;28.53;;;26.03;;
22881;SDS011;11608;50.894;5.296;2023-03-01T01:13:47;28.57;;;26.27;;
22881;SDS011;11608;50.894;5.296;2023-03-01T01:16:13;28.87;;;26.53;;
22881;SDS011;11608;50.894;5.296;2023-03-01T01:18:39;29.10;;;26.70;;
22881;SDS011;11608;50.894;5.296;2023-03-01T01:21:06;28.20;;;25.67;;
22881;SDS011;11608;50.894;5.296;2023-03-01T01:23:33;28.17;;;25.73;;
22881;SDS011;11608;50.894;5.296;2023-03-01T01:26:03;28.97;;;26.43;;
22881;SDS011;11608;50.894;5.296;2023-03-01T01:28:29;27.77;;;25.30;;
22881;SDS011;11608;50.894;5.296;2023-03-01T01:30:55;27.20;;;25.00;;
22881;SDS011;11608;50.894;5.296;2023-03-01T01:33:21;28.20;;;26.00;;
22881;SDS011;11608;50.894;5.296;2023-03-01T01:35:47;28.23;;;25.93;;
22881;SDS011;11608;50.894;5.296;2023-03-01T01:38:13;27.97;;;25.63;;
22881;SDS011;11608;50.894;5.296;2023-03-01T01:40:43;28.03;;;25.57;;
22881;SDS011;11608;50.894;5.296;2023-03-01T01:43:14;28.33;;;25.93;;
22881;SDS011;11608;50.894;5.296;2023-03-01T01:45:42;27.27;;;24.93;;
22881;SDS011;11608;50.894;5.296;2023-03-01T01:48:13;28.43;;;26.03;;
22881;SDS011;11608;50.894;5.296;2023-03-01T01:50:41;28.07;;;25.57;;
22881;SDS011;11608;50.894;5.296;2023-03-01T01:53:10;26.83;;;24.73;;
22881;SDS011;11608;50.894;5.296;2023-03-01T01:55:39;27.37;;;25.10;;
22881;SDS011;11608;50.894;5.296;2023-03-01T01:58:07;27.63;;;25.43;;
22881;SDS011;11608;50.894;5.296;2023-03-01T02:00:34;28.67;;;26.17;;
22881;SDS011;11608;50.894;5.296;2023-03-01T02:03:02;28.10;;;25.80;;
22881;SDS011;11608;50.894;5.296;2023-03-01T02:07:55;28.87;;;26.37;;
22881;SDS011;11608;50.894;5.296;2023-03-01T02:10:22;28.70;;;26.40;;
22881;SDS011;11608;50.894;5.296;2023-03-01T02:12:49;28.90;;;26.60;;
22881;SDS011;11608;50.894;5.296;2023-03-01T02:15:15;28.17;;;25.57;;
22881;SDS011;11608;50.894;5.296;2023-03-01T02:17:41;28.93;;;26.73;;
22881;SDS011;11608;50.894;5.296;2023-03-01T02:20:26;28.53;;;26.13;;
22881;SDS011;11608;50.894;5.296;2023-03-01T02:22:55;28.03;;;25.77;;
22881;SDS011;11608;50.894;5.296;2023-03-01T02:25:30;29.43;;;26.67;;
22881;SDS011;11608;50.894;5.296;2023-03-01T02:30:41;28.20;;;25.80;;
22881;SDS011;11608;50.894;5.296;2023-03-01T02:33:28;28.03;;;25.70;;
22881;SDS011;11608;50.894;5.296;2023-03-01T02:35:57;28.10;;;26.00;;
22881;SDS011;11608;50.894;5.296;2023-03-01T02:38:24;29.20;;;26.70;;
22881;SDS011;11608;50.894;5.296;2023-03-01T02:40:50;29.37;;;27.00;;
22881;SDS011;11608;50.894;5.296;2023-03-01T02:43:17;30.20;;;27.70;;
22881;SDS011;11608;50.894;5.296;2023-03-01T02:45:48;29.93;;;27.73;;
22881;SDS011;11608;50.894;5.296;2023-03-01T02:48:15;29.77;;;27.40;;
22881;SDS011;11608;50.894;5.296;2023-03-01T02:53:18;30.10;;;27.70;;
22881;SDS011;11608;50.894;5.296;2023-03-01T02:55:47;30.10;;;27.47;;
22881;SDS011;11608;50.894;5.296;2023-03-01T02:58:13;30.73;;;28.33;;
22881;SDS011;11608;50.894;5.296;2023-03-01T03:00:40;30.40;;;28.07;;
22881;SDS011;11608;50.894;5.296;2023-03-01T03:03:10;30.03;;;27.63;;
22881;SDS011;11608;50.894;5.296;2023-03-01T03:05:38;30.43;;;27.93;;
22881;SDS011;11608;50.894;5.296;2023-03-01T03:08:04;30.87;;;28.20;;
22881;SDS011;11608;50.894;5.296;2023-03-01T03:10:33;30.53;;;28.07;;
22881;SDS011;11608;50.894;5.296;2023-03-01T03:13:00;28.77;;;26.23;;
22881;SDS011;11608;50.894;5.296;2023-03-01T03:15:27;29.40;;;27.20;;
22881;SDS011;11608;50.894;5.296;2023-03-01T03:17:54;30.70;;;27.90;;
22881;SDS011;11608;50.894;5.296;2023-03-01T03:20:21;30.93;;;28.20;;
22881;SDS011;11608;50.894;5.296;2023-03-01T03:22:48;29.87;;;27.43;;
22881;SDS011;11608;50.894;5.296;2023-03-01T03:25:15;30.70;;;28.17;;
22881;SDS011;11608;50.894;5.296;2023-03-01T03:27:42;30.33;;;27.60;;
22881;SDS011;11608;50.894;5.296;2023-03-01T03:30:10;29.87;;;27.27;;
22881;SDS011;11608;50.894;5.296;2023-03-01T03:32:40;30.37;;;27.77;;
22881;SDS011;11608;50.894;5.296;2023-03-01T03:35:07;29.73;;;27.33;;
22881;SDS011;11608;50.894;5.296;2023-03-01T03:37:37;29.47;;;26.97;;
22881;SDS011;11608;50.894;5.296;2023-03-01T03:40:22;29.73;;;27.23;;
22881;SDS011;11608;50.894;5.296;2023-03-01T03:42:48;29.50;;;27.00;;
22881;SDS011;11608;50.894;5.296;2023-03-01T03:45:15;30.27;;;27.87;;
22881;SDS011;11608;50.894;5.296;2023-03-01T03:47:41;30.50;;;27.97;;
22881;SDS011;11608;50.894;5.296;2023-03-01T03:50:08;30.20;;;27.47;;
22881;SDS011;11608;50.894;5.296;2023-03-01T03:52:34;30.83;;;28.00;;
22881;SDS011;11608;50.894;5.296;2023-03-01T03:55:00;30.67;;;28.07;;
22881;SDS011;11608;50.894;5.296;2023-03-01T03:57:26;30.27;;;27.67;;
22881;SDS011;11608;50.894;5.296;2023-03-01T03:59:52;29.17;;;26.77;;
22881;SDS011;11608;50.894;5.296;2023-03-01T04:02:18;28.90;;;26.43;;
22881;SDS011;11608;50.894;5.296;2023-03-01T04:04:47;29.97;;;27.47;;
22881;SDS011;11608;50.894;5.296;2023-03-01T04:07:16;29.63;;;27.27;;
22881;SDS011;11608;50.894;5.296;2023-03-01T04:09:43;28.77;;;26.20;;
22881;SDS011;11608;50.894;5.296;2023-03-01T04:12:09;29.60;;;27.20;;
22881;SDS011;11608;50.894;5.296;2023-03-01T04:14:35;29.33;;;26.93;;
22881;SDS011;11608;50.894;5.296;2023-03-01T04:17:02;30.73;;;28.23;;
22881;SDS011;11608;50.894;5.296;2023-03-01T04:19:30;30.67;;;27.77;;
22881;SDS011;11608;50.894;5.296;2023-03-01T04:22:01;30.07;;;27.57;;
22881;SDS011;11608;50.894;5.296;2023-03-01T04:24:32;29.67;;;27.13;;
22881;SDS011;11608;50.894;5.296;2023-03-01T04:26:58;30.37;;;27.57;;
22881;SDS011;11608;50.894;5.296;2023-03-01T04:29:24;30.37;;;27.87;;
22881;SDS011;11608;50.894;5.296;2023-03-01T04:31:50;30.40;;;27.80;;
22881;SDS011;11608;50.894;5.296;2023-03-01T04:34:16;31.33;;;28.27;;
22881;SDS011;11608;50.894;5.296;2023-03-01T04:36:42;31.00;;;28.50;;
22881;SDS011;11608;50.894;5.296;2023-03-01T04:39:08;29.93;;;27.23;;
22881;SDS011;11608;50.894;5.296;2023-03-01T04:41:37;30.70;;;28.20;;
22881;SDS011;11608;50.894;5.296;2023-03-01T04:44:04;31.70;;;29.00;;
22881;SDS011;11608;50.894;5.296;2023-03-01T04:46:30;32.63;;;29.83;;
22881;SDS011;11608;50.894;5.296;2023-03-01T04:48:56;31.77;;;28.60;;
22881;SDS011;11608;50.894;5.296;2023-03-01T04:51:22;30.63;;;28.10;;
22881;SDS011;11608;50.894;5.296;2023-03-01T04:53:48;30.20;;;27.80;;
22881;SDS011;11608;50.894;5.296;2023-03-01T04:56:14;30.83;;;28.23;;
22881;SDS011;11608;50.894;5.296;2023-03-01T04:58:42;30.33;;;27.53;;
22881;SDS011;11608;50.894;5.296;2023-03-01T05:01:09;30.83;;;28.13;;
22881;SDS011;11608;50.894;5.296;2023-03-01T05:03:40;31.83;;;28.90;;
22881;SDS011;11608;50.894;5.296;2023-03-01T05:06:06;30.73;;;28.03;;
22881;SDS011;11608;50.894;5.296;2023-03-01T05:08:32;31.03;;;28.40;;
22881;SDS011;11608;50.894;5.296;2023-03-01T05:10:59;32.63;;;29.80;;
22881;SDS011;11608;50.894;5.296;2023-03-01T05:13:25;30.93;;;28.33;;
22881;SDS011;11608;50.894;5.296;2023-03-01T05:15:55;31.23;;;28.53;;
22881;SDS011;11608;50.894;5.296;2023-03-01T05:18:22;30.83;;;28.13;;
22881;SDS011;11608;50.894;5.296;2023-03-01T05:20:50;32.03;;;29.17;;
22881;SDS011;11608;50.894;5.296;2023-03-01T05:23:17;31.73;;;29.10;;
22881;SDS011;11608;50.894;5.296;2023-03-01T05:25:43;31.70;;;28.90;;
22881;SDS011;11608;50.894;5.296;2023-03-01T05:28:13;32.53;;;29.67;;
22881;SDS011;11608;50.894;5.296;2023-03-01T05:30:39;31.47;;;28.67;;
22881;SDS011;11608;50.894;5.296;2023-03-01T05:33:05;32.60;;;29.50;;
22881;SDS011;11608;50.894;5.296;2023-03-01T05:35:35;31.73;;;28.90;;
22881;SDS011;11608;50.894;5.296;2023-03-01T05:38:01;33.07;;;29.97;;
22881;SDS011;11608;50.894;5.296;2023-03-01T05:40:27;32.00;;;29.20;;
22881;SDS011;11608;50.894;5.296;2023-03-01T05:42:54;30.70;;;28.23;;
22881;SDS011;11608;50.894;5.296;2023-03-01T05:45:21;31.03;;;28.53;;
22881;SDS011;11608;50.894;5.296;2023-03-01T05:47:48;33.90;;;30.73;;
22881;SDS011;11608;50.894;5.296;2023-03-01T05:50:16;30.87;;;28.37;;
22881;SDS011;11608;50.894;5.296;2023-03-01T05:52:44;31.87;;;28.97;;
22881;SDS011;11608;50.894;5.296;2023-03-01T05:55:11;32.20;;;29.40;;
22881;SDS011;11608;50.894;5.296;2023-03-01T05:57:37;30.83;;;28.20;;
22881;SDS011;11608;50.894;5.296;2023-03-01T06:00:03;31.07;;;28.50;;
22881;SDS011;11608;50.894;5.296;2023-03-01T06:02:31;32.03;;;29.20;;
22881;SDS011;11608;50.894;5.296;2023-03-01T06:04:57;31.23;;;28.70;;
22881;SDS011;11608;50.894;5.296;2023-03-01T06:07:23;31.50;;;28.73;;
22881;SDS011;11608;50.894;5.296;2023-03-01T06:09:49;31.03;;;28.53;;
22881;SDS011;11608;50.894;5.296;2023-03-01T06:12:15;32.00;;;29.10;;
22881;SDS011;11608;50.894;5.296;2023-03-01T06:14:42;31.43;;;28.83;;
22881;SDS011;11608;50.894;5.296;2023-03-01T06:17:08;30.13;;;27.70;;
22881;SDS011;11608;50.894;5.296;2023-03-01T06:19:34;32.00;;;28.87;;
22881;SDS011;11608;50.894;5.296;2023-03-01T06:22:00;31.83;;;29.27;;
22881;SDS011;11608;50.894;5.296;2023-03-01T06:24:26;31.03;;;28.10;;
22881;SDS011;11608;50.894;5.296;2023-03-01T06:26:53;30.10;;;27.40;;
22881;SDS011;11608;50.894;5.296;2023-03-01T06:29:19;29.43;;;26.87;;
22881;SDS011;11608;50.894;5.296;2023-03-01T06:31:47;30.33;;;27.53;;
22881;SDS011;11608;50.894;5.296;2023-03-01T06:34:13;31.03;;;28.23;;
22881;SDS011;11608;50.894;5.296;2023-03-01T06:36:39;29.73;;;27.13;;
22881;SDS011;11608;50.894;5.296;2023-03-01T06:39:06;30.27;;;27.57;;
22881;SDS011;11608;50.894;5.296;2023-03-01T06:41:32;30.67;;;27.87;;
22881;SDS011;11608;50.894;5.296;2023-03-01T06:43:58;30.60;;;27.80;;
22881;SDS011;11608;50.894;5.296;2023-03-01T06:46:25;30.63;;;27.80;;
22881;SDS011;11608;50.894;5.296;2023-03-01T06:48:51;30.67;;;27.70;;
22881;SDS011;11608;50.894;5.296;2023-03-01T06:51:17;31.43;;;28.47;;
22881;SDS011;11608;50.894;5.296;2023-03-01T06:53:43;30.80;;;27.77;;
22881;SDS011;11608;50.894;5.296;2023-03-01T06:56:09;32.70;;;29.07;;
22881;SDS011;11608;50.894;5.296;2023-03-01T06:58:35;32.77;;;29.27;;
22881;SDS011;11608;50.894;5.296;2023-03-01T07:01:04;30.87;;;27.80;;
22881;SDS011;11608;50.894;5.296;2023-03-01T07:03:30;30.60;;;27.67;;
22881;SDS011;11608;50.894;5.296;2023-03-01T07:05:56;32.90;;;28.17;;
22881;SDS011;11608;50.894;5.296;2023-03-01T07:08:23;32.13;;;28.83;;
22881;SDS011;11608;50.894;5.296;2023-03-01T07:10:54;30.83;;;27.73;;
22881;SDS011;11608;50.894;5.296;2023-03-01T07:13:20;32.23;;;29.10;;
22881;SDS011;11608;50.894;5.296;2023-03-01T07:15:46;31.17;;;27.93;;
22881;SDS011;11608;50.894;5.296;2023-03-01T07:18:12;33.90;;;28.23;;
22881;SDS011;11608;50.894;5.296;2023-03-01T07:20:38;30.37;;;27.27;;
22881;SDS011;11608;50.894;5.296;2023-03-01T07:23:05;30.30;;;27.27;;
22881;SDS011;11608;50.894;5.296;2023-03-01T07:25:31;29.90;;;27.03;;
22881;SDS011;11608;50.894;5.296;2023-03-01T07:27:57;29.70;;;27.00;;
22881;SDS011;11608;50.894;5.296;2023-03-01T07:30:24;30.57;;;27.57;;
22881;SDS011;11608;50.894;5.296;2023-03-01T07:32:56;30.90;;;27.80;;
22881;SDS011;11608;50.894;5.296;2023-03-01T07:35:23;28.70;;;26.13;;
22881;SDS011;11608;50.894;5.296;2023-03-01T07:37:50;28.60;;;26.10;;
22881;SDS011;11608;50.894;5.296;2023-03-01T07:40:16;30.53;;;27.13;;
22881;SDS011;11608;50.894;5.296;2023-03-01T07:42:42;30.20;;;27.60;;
22881;SDS011;11608;50.894;5.296;2023-03-01T07:45:10;28.77;;;25.90;;
22881;SDS011;11608;50.894;5.296;2023-03-01T07:47:36;28.80;;;26.20;;
22881;SDS011;11608;50.894;5.296;2023-03-01T07:50:02;28.67;;;26.00;;
22881;SDS011;11608;50.894;5.296;2023-03-01T07:52:29;30.73;;;27.53;;
22881;SDS011;11608;50.894;5.296;2023-03-01T07:54:55;29.33;;;26.30;;
22881;SDS011;11608;50.894;5.296;2023-03-01T07:57:22;28.60;;;26.00;;
22881;SDS011;11608;50.894;5.296;2023-03-01T07:59:48;28.63;;;25.80;;
22881;SDS011;11608;50.894;5.296;2023-03-01T08:02:14;27.80;;;25.23;;
22881;SDS011;11608;50.894;5.296;2023-03-01T08:04:40;27.50;;;25.00;;
22881;SDS011;11608;50.894;5.296;2023-03-01T08:07:07;28.90;;;26.47;;
22881;SDS011;11608;50.894;5.296;2023-03-01T08:09:36;29.43;;;26.50;;
22881;SDS011;11608;50.894;5.296;2023-03-01T08:12:02;28.77;;;25.87;;
22881;SDS011;11608;50.894;5.296;2023-03-01T08:14:29;28.10;;;25.23;;
22881;SDS011;11608;50.894;5.296;2023-03-01T08:16:55;28.03;;;25.53;;
22881;SDS011;11608;50.894;5.296;2023-03-01T08:19:21;28.87;;;25.90;;
22881;SDS011;11608;50.894;5.296;2023-03-01T08:21:47;29.73;;;26.83;;
22881;SDS011;11608;50.894;5.296;2023-03-01T08:24:13;28.60;;;26.00;;
22881;SDS011;11608;50.894;5.296;2023-03-01T08:26:39;28.30;;;25.73;;
22881;SDS011;11608;50.894;5.296;2023-03-01T08:29:05;29.10;;;26.40;;
22881;SDS011;11608;50.894;5.296;2023-03-01T08:31:36;28.85;;;26.35;;
22881;SDS011;11608;50.894;5.296;2023-03-01T08:34:03;29.15;;;26.40;;
22881;SDS011;11608;50.894;5.296;2023-03-01T08:36:30;28.52;;;25.83;;
22881;SDS011;11608;50.894;5.296;2023-03-01T08:38:57;28.98;;;26.17;;
22881;SDS011;11608;50.894;5.296;2023-03-01T08:41:23;28.90;;;26.10;;
22881;SDS011;11608;50.894;5.296;2023-03-01T08:43:49;28.98;;;26.33;;
22881;SDS011;11608;50.894;5.296;2023-03-01T08:46:15;30.00;;;27.17;;
22881;SDS011;11608;50.894;5.296;2023-03-01T08:48:41;29.20;;;26.33;;
22881;SDS011;11608;50.894;5.296;2023-03-01T08:51:15;28.63;;;25.83;;
22881;SDS011;11608;50.894;5.296;2023-03-01T08:53:41;28.08;;;25.58;;
22881;SDS011;11608;50.894;5.296;2023-03-01T08:56:08;29.02;;;26.38;;
22881;SDS011;11608;50.894;5.296;2023-03-01T08:58:34;28.20;;;25.77;;
22881;SDS011;11608;50.894;5.296;2023-03-01T09:01:01;28.08;;;25.58;;
22881;SDS011;11608;50.894;5.296;2023-03-01T09:03:32;28.35;;;25.83;;
22881;SDS011;11608;50.894;5.296;2023-03-01T09:06:01;27.77;;;25.17;;
22881;SDS011;11608;50.894;5.296;2023-03-01T09:08:27;27.83;;;25.25;;
22881;SDS011;11608;50.894;5.296;2023-03-01T09:10:53;29.15;;;26.52;;
22881;SDS011;11608;50.894;5.296;2023-03-01T09:13:19;28.77;;;25.95;;
22881;SDS011;11608;50.894;5.296;2023-03-01T09:15:45;28.33;;;26.02;;
22881;SDS011;11608;50.894;5.296;2023-03-01T09:18:11;28.20;;;25.75;;
22881;SDS011;11608;50.894;5.296;2023-03-01T09:20:37;29.13;;;26.42;;
22881;SDS011;11608;50.894;5.296;2023-03-01T09:23:03;28.27;;;25.55;;
22881;SDS011;11608;50.894;5.296;2023-03-01T09:25:29;27.65;;;24.88;;
22881;SDS011;11608;50.894;5.296;2023-03-01T09:27:55;28.25;;;25.92;;
22881;SDS011;11608;50.894;5.296;2023-03-01T09:30:21;27.05;;;24.75;;
22881;SDS011;11608;50.894;5.296;2023-03-01T09:32:49;29.33;;;26.77;;
22881;SDS011;11608;50.894;5.296;2023-03-01T09:35:15;28.67;;;26.08;;
22881;SDS011;11608;50.894;5.296;2023-03-01T09:37:44;28.55;;;26.10;;
22881;SDS011;11608;50.894;5.296;2023-03-01T09:40:17;28.70;;;26.15;;
22881;SDS011;11608;50.894;5.296;2023-03-01T09:42:49;28.45;;;25.85;;
22881;SDS011;11608;50.894;5.296;2023-03-01T09:45:35;28.48;;;25.95;;
22881;SDS011;11608;50.894;5.296;2023-03-01T09:48:04;28.23;;;25.55;;
22881;SDS011;11608;50.894;5.296;2023-03-01T09:50:33;29.40;;;26.38;;
22881;SDS011;11608;50.894;5.296;2023-03-01T09:53:01;27.42;;;24.92;;
22881;SDS011;11608;50.894;5.296;2023-03-01T09:57:59;29.35;;;26.50;;
22881;SDS011;11608;50.894;5.296;2023-03-01T10:05:31;28.67;;;26.05;;
22881;SDS011;11608;50.894;5.296;2023-03-01T10:10:32;30.27;;;27.25;;
22881;SDS011;11608;50.894;5.296;2023-03-01T10:13:00;28.67;;;26.02;;
22881;SDS011;11608;50.894;5.296;2023-03-01T10:15:34;29.30;;;26.52;;
22881;SDS011;11608;50.894;5.296;2023-03-01T10:18:06;30.27;;;27.48;;
22881;SDS011;11608;50.894;5.296;2023-03-01T10:23:08;29.67;;;26.83;;
22881;SDS011;11608;50.894;5.296;2023-03-01T10:28:25;29.67;;;27.13;;
22881;SDS011;11608;50.894;5.296;2023-03-01T10:30:55;29.85;;;26.92;;
22881;SDS011;11608;50.894;5.296;2023-03-01T10:33:32;29.90;;;27.17;;
22881;SDS011;11608;50.894;5.296;2023-03-01T10:35:58;29.48;;;26.55;;
22881;SDS011;11608;50.894;5.296;2023-03-01T10:38:24;29.75;;;27.08;;
22881;SDS011;11608;50.894;5.296;2023-03-01T10:41:04;31.75;;;28.83;;
22881;SDS011;11608;50.894;5.296;2023-03-01T10:43:47;29.70;;;26.85;;
22881;SDS011;11608;50.894;5.296;2023-03-01T10:46:21;30.08;;;27.38;;
22881;SDS011;11608;50.894;5.296;2023-03-01T10:48:57;29.58;;;26.70;;
22881;SDS011;11608;50.894;5.296;2023-03-01T10:51:31;30.33;;;27.52;;
22881;SDS011;11608;50.894;5.296;2023-03-01T10:53:57;29.95;;;27.17;;
22881;SDS011;11608;50.894;5.296;2023-03-01T10:56:23;30.90;;;27.90;;
22881;SDS011;11608;50.894;5.296;2023-03-01T10:58:57;31.27;;;28.20;;
22881;SDS011;11608;50.894;5.296;2023-03-01T11:06:29;30.40;;;27.70;;
22881;SDS011;11608;50.894;5.296;2023-03-01T11:08:55;30.67;;;27.90;;
22881;SDS011;11608;50.894;5.296;2023-03-01T11:13:49;30.52;;;27.60;;
22881;SDS011;11608;50.894;5.296;2023-03-01T11:16:17;31.10;;;28.10;;
22881;SDS011;11608;50.894;5.296;2023-03-01T11:18:55;30.58;;;27.83;;
22881;SDS011;11608;50.894;5.296;2023-03-01T11:21:21;31.35;;;28.25;;
22881;SDS011;11608;50.894;5.296;2023-03-01T11:23:48;30.25;;;27.25;;
22881;SDS011;11608;50.894;5.296;2023-03-01T11:26:14;30.25;;;27.30;;
22881;SDS011;11608;50.894;5.296;2023-03-01T11:28:41;30.70;;;27.90;;
22881;SDS011;11608;50.894;5.296;2023-03-01T11:31:08;30.05;;;27.25;;
22881;SDS011;11608;50.894;5.296;2023-03-01T11:33:41;30.65;;;27.85;;
22881;SDS011;11608;50.894;5.296;2023-03-01T11:36:13;29.75;;;26.75;;
22881;SDS011;11608;50.894;5.296;2023-03-01T11:38:42;30.15;;;27.58;;
22881;SDS011;11608;50.894;5.296;2023-03-01T11:41:18;31.20;;;28.20;;
22881;SDS011;11608;50.894;5.296;2023-03-01T12:11:09;29.65;;;26.90;;
22881;SDS011;11608;50.894;5.296;2023-03-01T12:19:06;30.92;;;28.13;;
22881;SDS011;11608;50.894;5.296;2023-03-01T12:26:33;29.15;;;26.67;;
22881;SDS011;11608;50.894;5.296;2023-03-01T12:34:01;30.02;;;27.25;;
22881;SDS011;11608;50.894;5.296;2023-03-01T12:37:33;29.23;;;26.67;;
22881;SDS011;11608;50.894;5.296;2023-03-01T12:52:43;30.58;;;27.98;;
22881;SDS011;11608;50.894;5.296;2023-03-01T12:55:22;30.42;;;27.60;;
22881;SDS011;11608;50.894;5.296;2023-03-01T12:57:59;29.45;;;26.92;;
22881;SDS011;11608;50.894;5.296;2023-03-01T13:08:18;29.00;;;26.33;;
22881;SDS011;11608;50.894;5.296;2023-03-01T13:10:49;29.88;;;27.02;;
22881;SDS011;11608;50.894;5.296;2023-03-01T13:13:23;29.52;;;26.92;;
22881;SDS011;11608;50.894;5.296;2023-03-01T13:15:49;29.02;;;26.33;;
22881;SDS011;11608;50.894;5.296;2023-03-01T13:20:46;29.42;;;26.83;;
22881;SDS011;11608;50.894;5.296;2023-03-01T13:36:06;29.90;;;27.20;;
22881;SDS011;11608;50.894;5.296;2023-03-01T13:41:03;28.80;;;26.35;;
22881;SDS011;11608;50.894;5.296;2023-03-01T13:43:33;29.30;;;26.48;;
22881;SDS011;11608;50.894;5.296;2023-03-01T13:46:00;29.83;;;27.08;;
22881;SDS011;11608;50.894;5.296;2023-03-01T13:48:29;28.63;;;26.13;;
22881;SDS011;11608;50.894;5.296;2023-03-01T13:51:00;27.17;;;24.88;;
22881;SDS011;11608;50.894;5.296;2023-03-01T13:53:27;29.08;;;26.40;;
22881;SDS011;11608;50.894;5.296;2023-03-01T13:55:56;29.17;;;26.48;;
22881;SDS011;11608;50.894;5.296;2023-03-01T13:58:30;29.13;;;26.40;;
22881;SDS011;11608;50.894;5.296;2023-03-01T14:01:00;28.95;;;26.42;;
22881;SDS011;11608;50.894;5.296;2023-03-01T14:03:27;28.33;;;25.92;;
22881;SDS011;11608;50.894;5.296;2023-03-01T14:08:26;28.83;;;26.30;;
22881;SDS011;11608;50.894;5.296;2023-03-01T14:13:34;28.38;;;25.77;;
22881;SDS011;11608;50.894;5.296;2023-03-01T14:18:39;29.55;;;26.77;;
22881;SDS011;11608;50.894;5.296;2023-03-01T14:21:12;28.73;;;26.13;;
22881;SDS011;11608;50.894;5.296;2023-03-01T14:23:39;28.73;;;26.23;;
22881;SDS011;11608;50.894;5.296;2023-03-01T14:26:07;27.70;;;25.10;;
22881;SDS011;11608;50.894;5.296;2023-03-01T14:28:34;28.23;;;25.83;;
22881;SDS011;11608;50.894;5.296;2023-03-01T14:31:05;27.92;;;25.23;;
22881;SDS011;11608;50.894;5.296;2023-03-01T14:33:54;28.15;;;25.55;;
22881;SDS011;11608;50.894;5.296;2023-03-01T14:36:25;28.75;;;26.05;;
22881;SDS011;11608;50.894;5.296;2023-03-01T14:38:51;28.23;;;25.48;;
22881;SDS011;11608;50.894;5.296;2023-03-01T14:41:24;27.88;;;25.38;;
22881;SDS011;11608;50.894;5.296;2023-03-01T14:46:21;27.40;;;24.80;;
22881;SDS011;11608;50.894;5.296;2023-03-01T14:48:53;27.92;;;25.60;;
22881;SDS011;11608;50.894;5.296;2023-03-01T14:51:20;27.98;;;25.50;;
22881;SDS011;11608;50.894;5.296;2023-03-01T14:53:46;28.08;;;25.38;;
22881;SDS011;11608;50.894;5.296;2023-03-01T14:56:13;27.95;;;25.40;;
22881;SDS011;11608;50.894;5.296;2023-03-01T14:58:39;27.15;;;24.65;;
22881;SDS011;11608;50.894;5.296;2023-03-01T15:01:05;27.60;;;25.08;;
22881;SDS011;11608;50.894;5.296;2023-03-01T15:06:03;27.13;;;24.63;;
22881;SDS011;11608;50.894;5.296;2023-03-01T15:08:30;26.90;;;24.50;;
22881;SDS011;11608;50.894;5.296;2023-03-01T15:11:04;27.92;;;25.25;;
22881;SDS011;11608;50.894;5.296;2023-03-01T15:13:32;27.83;;;25.23;;
22881;SDS011;11608;50.894;5.296;2023-03-01T15:18:34;27.25;;;24.67;;
22881;SDS011;11608;50.894;5.296;2023-03-01T15:21:05;26.60;;;24.27;;
22881;SDS011;11608;50.894;5.296;2023-03-01T15:23:31;26.50;;;24.25;;
22881;SDS011;11608;50.894;5.296;2023-03-01T15:25:57;27.58;;;24.75;;
22881;SDS011;11608;50.894;5.296;2023-03-01T15:28:26;27.42;;;24.80;;
22881;SDS011;11608;50.894;5.296;2023-03-01T15:30:55;27.95;;;25.45;;
22881;SDS011;11608;50.894;5.296;2023-03-01T15:35:52;27.20;;;24.80;;
22881;SDS011;11608;50.894;5.296;2023-03-01T15:38:29;27.85;;;25.25;;
22881;SDS011;11608;50.894;5.296;2023-03-01T15:40:57;26.65;;;24.35;;
22881;SDS011;11608;50.894;5.296;2023-03-01T15:43:40;28.30;;;24.65;;
22881;SDS011;11608;50.894;5.296;2023-03-01T15:46:11;26.58;;;24.17;;
22881;SDS011;11608;50.894;5.296;2023-03-01T15:48:39;26.65;;;24.25;;
22881;SDS011;11608;50.894;5.296;2023-03-01T15:51:09;25.95;;;23.55;;
22881;SDS011;11608;50.894;5.296;2023-03-01T15:53:37;26.17;;;23.75;;
22881;SDS011;11608;50.894;5.296;2023-03-01T15:56:03;25.15;;;23.02;;
22881;SDS011;11608;50.894;5.296;2023-03-01T15:58:32;25.65;;;22.95;;
22881;SDS011;11608;50.894;5.296;2023-03-01T16:00:58;25.17;;;23.08;;
22881;SDS011;11608;50.894;5.296;2023-03-01T16:03:24;26.02;;;23.65;;
22881;SDS011;11608;50.894;5.296;2023-03-01T16:05:51;24.17;;;22.17;;
22881;SDS011;11608;50.894;5.296;2023-03-01T16:08:17;25.25;;;23.02;;
22881;SDS011;11608;50.894;5.296;2023-03-01T16:10:43;24.60;;;22.60;;
22881;SDS011;11608;50.894;5.296;2023-03-01T16:13:10;24.63;;;22.38;;
22881;SDS011;11608;50.894;5.296;2023-03-01T16:15:36;24.58;;;22.58;;
22881;SDS011;11608;50.894;5.296;2023-03-01T16:18:04;24.58;;;22.45;;
22881;SDS011;11608;50.894;5.296;2023-03-01T16:20:31;24.85;;;22.45;;
22881;SDS011;11608;50.894;5.296;2023-03-01T16:22:58;24.45;;;22.25;;
22881;SDS011;11608;50.894;5.296;2023-03-01T16:25:27;23.95;;;21.95;;
22881;SDS011;11608;50.894;5.296;2023-03-01T16:27:54;24.05;;;22.02;;
22881;SDS011;11608;50.894;5.296;2023-03-01T16:30:21;25.05;;;22.85;;
22881;SDS011;11608;50.894;5.296;2023-03-01T16:32:47;25.13;;;22.77;;
22881;SDS011;11608;50.894;5.296;2023-03-01T16:35:15;24.63;;;22.47;;